Aérodrome :
LOGIN :

S'inscrire | Disclaimer

   EN    FR    IT 

 










Légende :    VFR   VFR Marginal   IFR   IFR Intensif   IFR Très Intensif
Visi : 
Plafond : 
>= 8 km
>= 3000ft
5 à 8 km
1000 à 3000 ft
1500m à 5 km
500 à 1000 ft
800 à 1500m
200 à 500 ft
< 800m
< 200 ft
Symboles :   Orages  Brouillard  Fortes neiges  Fortes précipitations  Vent > 20 kt
SIGMETs :   Divers  Orages  Givrage  Turbulence  Onde Orograph.  Cendres Volcan.







- Altitude de l'aérodrome : 16 ft
- Code IATA : EAS


LESO - San Sebastian Fuenterrabia

DERNIER METAR :
  • 230430Z VRB02KT CAVOK 12/11 Q1017

METARs EXPIRÉS :
  • 230400Z 20002KT CAVOK 12/11 Q1016
  • 230330Z VRB02KT 9000 FEW005 13/12 Q1016
  • 230300Z AUTO 21003KT 180V240 8000 NCD 13/12 Q1017
  • 230230Z AUTO 21003KT 180V250 9000 NCD 13/12 Q1017
  • 230200Z AUTO 25001KT 8000 NCD 13/12 Q1017

TAF TAF LESO
Valide du 23 à 00h jusqu'au 24 à 00h UTC


222300Z 2300/2324 10003KT CAVOK TX20/2314Z TN12/2305Z
PROB40
TEMPO 2304/2307 3000 BR
BECMG 2306/2310 29010KT
PROB40
TEMPO 2312/2318 SCT030TCU
PROB40
TEMPO 2318/2324 3000 -RADZ BKN005 BKN010 BKN014
Pas de NOTAMs connus pour ce terrain.



MET'MAP, la Météo Aéronautique d'un coup d'oeil ! - Copyright ORBIFLY Décembre 2007 - Disclaimer

ORBIFLY MET'MAP TEAM :

Programmation & Développement : Alexandra Zaïnal
Conception & Développement : Baudouin d'Aumeries
Co-Programmation & Développement : Marc-Olivier Méhu
Soutien technique & logistique : Manuel Goepfert

Contact : metmap@orbifly.com




SOURCES & CREDITS :

   NOAA